sensor_id;sensor_type;location;lat;lon;timestamp;P1;durP1;ratioP1;P2;durP2;ratioP2
79710;SDS011;69465;51.630;6.570;2023-04-25T01:56:31;15.57;;;7.37;;
79710;SDS011;69465;51.630;6.570;2023-04-25T01:58:58;17.70;;;8.10;;
79710;SDS011;69465;51.630;6.570;2023-04-25T02:01:26;16.07;;;7.20;;
79710;SDS011;69465;51.630;6.570;2023-04-25T02:03:52;15.27;;;7.20;;
79710;SDS011;69465;51.630;6.570;2023-04-25T02:06:20;13.23;;;7.00;;
79710;SDS011;69465;51.630;6.570;2023-04-25T02:08:46;18.58;;;7.78;;
79710;SDS011;69465;51.630;6.570;2023-04-25T02:11:13;12.65;;;6.95;;
79710;SDS011;69465;51.630;6.570;2023-04-25T02:13:40;12.73;;;6.30;;
79710;SDS011;69465;51.630;6.570;2023-04-25T02:16:07;14.93;;;6.73;;
79710;SDS011;69465;51.630;6.570;2023-04-25T02:18:34;16.77;;;7.07;;
79710;SDS011;69465;51.630;6.570;2023-04-25T02:21:00;17.13;;;7.03;;
79710;SDS011;69465;51.630;6.570;2023-04-25T02:23:27;17.27;;;6.37;;
79710;SDS011;69465;51.630;6.570;2023-04-25T02:25:54;14.00;;;6.43;;
79710;SDS011;69465;51.630;6.570;2023-04-25T02:28:23;13.50;;;6.83;;
79710;SDS011;69465;51.630;6.570;2023-04-25T02:30:50;17.47;;;7.17;;
79710;SDS011;69465;51.630;6.570;2023-04-25T02:33:17;17.13;;;7.10;;
79710;SDS011;69465;51.630;6.570;2023-04-25T02:35:43;14.60;;;7.33;;
79710;SDS011;69465;51.630;6.570;2023-04-25T02:38:11;13.93;;;7.63;;
79710;SDS011;69465;51.630;6.570;2023-04-25T02:40:37;13.67;;;6.80;;
79710;SDS011;69465;51.630;6.570;2023-04-25T02:43:03;22.03;;;7.50;;
79710;SDS011;69465;51.630;6.570;2023-04-25T02:45:30;15.40;;;6.97;;
79710;SDS011;69465;51.630;6.570;2023-04-25T02:47:57;19.90;;;7.70;;
79710;SDS011;69465;51.630;6.570;2023-04-25T02:50:24;18.63;;;7.10;;
79710;SDS011;69465;51.630;6.570;2023-04-25T02:52:50;17.70;;;8.73;;
79710;SDS011;69465;51.630;6.570;2023-04-25T02:55:17;18.03;;;7.90;;
79710;SDS011;69465;51.630;6.570;2023-04-25T02:57:44;17.30;;;7.67;;
79710;SDS011;69465;51.630;6.570;2023-04-25T03:00:10;16.73;;;7.10;;
79710;SDS011;69465;51.630;6.570;2023-04-25T03:02:38;17.83;;;6.90;;
79710;SDS011;69465;51.630;6.570;2023-04-25T03:05:04;18.40;;;6.93;;
79710;SDS011;69465;51.630;6.570;2023-04-25T03:07:31;15.90;;;7.97;;
79710;SDS011;69465;51.630;6.570;2023-04-25T03:09:58;20.97;;;7.43;;
79710;SDS011;69465;51.630;6.570;2023-04-25T03:12:24;14.57;;;7.13;;
79710;SDS011;69465;51.630;6.570;2023-04-25T03:14:51;19.43;;;8.10;;
79710;SDS011;69465;51.630;6.570;2023-04-25T03:17:18;20.90;;;8.23;;
79710;SDS011;69465;51.630;6.570;2023-04-25T03:19:44;19.67;;;7.80;;
79710;SDS011;69465;51.630;6.570;2023-04-25T03:22:11;16.27;;;7.57;;
79710;SDS011;69465;51.630;6.570;2023-04-25T03:24:37;14.87;;;7.63;;
79710;SDS011;69465;51.630;6.570;2023-04-25T03:27:04;23.20;;;8.20;;
79710;SDS011;69465;51.630;6.570;2023-04-25T03:29:31;18.23;;;8.20;;
79710;SDS011;69465;51.630;6.570;2023-04-25T03:31:57;17.27;;;7.90;;
79710;SDS011;69465;51.630;6.570;2023-04-25T03:34:24;18.27;;;8.30;;
79710;SDS011;69465;51.630;6.570;2023-04-25T03:36:51;17.40;;;8.57;;
79710;SDS011;69465;51.630;6.570;2023-04-25T03:39:18;19.73;;;8.48;;
79710;SDS011;69465;51.630;6.570;2023-04-25T03:41:44;17.60;;;8.53;;
79710;SDS011;69465;51.630;6.570;2023-04-25T03:44:11;22.73;;;9.00;;
79710;SDS011;69465;51.630;6.570;2023-04-25T03:46:37;19.90;;;8.70;;
79710;SDS011;69465;51.630;6.570;2023-04-25T03:49:04;18.33;;;8.57;;
79710;SDS011;69465;51.630;6.570;2023-04-25T03:51:31;18.47;;;8.60;;
79710;SDS011;69465;51.630;6.570;2023-04-25T03:53:57;26.98;;;10.00;;
79710;SDS011;69465;51.630;6.570;2023-04-25T03:56:24;20.80;;;8.93;;
79710;SDS011;69465;51.630;6.570;2023-04-25T03:58:51;19.23;;;8.70;;
79710;SDS011;69465;51.630;6.570;2023-04-25T04:01:18;24.23;;;11.73;;
79710;SDS011;69465;51.630;6.570;2023-04-25T04:03:44;20.30;;;8.17;;
79710;SDS011;69465;51.630;6.570;2023-04-25T04:06:11;21.23;;;8.60;;
79710;SDS011;69465;51.630;6.570;2023-04-25T04:08:38;25.63;;;9.32;;
79710;SDS011;69465;51.630;6.570;2023-04-25T04:11:04;27.23;;;9.60;;
79710;SDS011;69465;51.630;6.570;2023-04-25T04:13:31;25.53;;;9.63;;
79710;SDS011;69465;51.630;6.570;2023-04-25T04:15:58;23.87;;;9.23;;
79710;SDS011;69465;51.630;6.570;2023-04-25T04:18:24;19.63;;;8.13;;
79710;SDS011;69465;51.630;6.570;2023-04-25T04:20:51;23.43;;;8.83;;
79710;SDS011;69465;51.630;6.570;2023-04-25T04:23:18;17.88;;;8.73;;
79710;SDS011;69465;51.630;6.570;2023-04-25T04:25:45;19.13;;;8.23;;
79710;SDS011;69465;51.630;6.570;2023-04-25T04:28:12;16.88;;;8.18;;
79710;SDS011;69465;51.630;6.570;2023-04-25T04:30:39;17.10;;;8.35;;
79710;SDS011;69465;51.630;6.570;2023-04-25T04:33:05;23.85;;;9.80;;
79710;SDS011;69465;51.630;6.570;2023-04-25T04:35:32;23.20;;;9.23;;
79710;SDS011;69465;51.630;6.570;2023-04-25T04:37:58;20.90;;;8.35;;
79710;SDS011;69465;51.630;6.570;2023-04-25T04:40:25;19.70;;;8.85;;
79710;SDS011;69465;51.630;6.570;2023-04-25T04:42:52;22.30;;;9.93;;
79710;SDS011;69465;51.630;6.570;2023-04-25T04:45:19;21.73;;;8.32;;
79710;SDS011;69465;51.630;6.570;2023-04-25T04:47:45;21.15;;;7.93;;
79710;SDS011;69465;51.630;6.570;2023-04-25T04:50:12;20.05;;;8.05;;
79710;SDS011;69465;51.630;6.570;2023-04-25T04:52:39;20.80;;;8.98;;
79710;SDS011;69465;51.630;6.570;2023-04-25T04:55:06;24.00;;;8.53;;
79710;SDS011;69465;51.630;6.570;2023-04-25T04:57:33;18.87;;;8.17;;
79710;SDS011;69465;51.630;6.570;2023-04-25T05:00:00;17.67;;;7.63;;
79710;SDS011;69465;51.630;6.570;2023-04-25T05:02:26;21.20;;;8.07;;
79710;SDS011;69465;51.630;6.570;2023-04-25T05:04:53;16.27;;;7.93;;
79710;SDS011;69465;51.630;6.570;2023-04-25T05:07:22;17.47;;;7.53;;
79710;SDS011;69465;51.630;6.570;2023-04-25T05:09:49;15.85;;;7.25;;
79710;SDS011;69465;51.630;6.570;2023-04-25T05:12:16;18.33;;;7.23;;
79710;SDS011;69465;51.630;6.570;2023-04-25T05:14:42;19.33;;;7.57;;
79710;SDS011;69465;51.630;6.570;2023-04-25T05:17:09;18.10;;;6.70;;
79710;SDS011;69465;51.630;6.570;2023-04-25T05:19:36;19.10;;;7.20;;
79710;SDS011;69465;51.630;6.570;2023-04-25T05:22:02;15.00;;;6.73;;
79710;SDS011;69465;51.630;6.570;2023-04-25T05:24:29;20.07;;;7.03;;
79710;SDS011;69465;51.630;6.570;2023-04-25T05:26:56;20.13;;;6.10;;
79710;SDS011;69465;51.630;6.570;2023-04-25T05:29:23;13.90;;;6.30;;
79710;SDS011;69465;51.630;6.570;2023-04-25T05:31:49;18.58;;;6.63;;
79710;SDS011;69465;51.630;6.570;2023-04-25T05:34:16;15.13;;;6.00;;
79710;SDS011;69465;51.630;6.570;2023-04-25T05:36:43;16.13;;;6.03;;
79710;SDS011;69465;51.630;6.570;2023-04-25T05:39:10;16.30;;;5.33;;
79710;SDS011;69465;51.630;6.570;2023-04-25T05:41:36;16.63;;;6.47;;
79710;SDS011;69465;51.630;6.570;2023-04-25T05:44:03;15.70;;;5.70;;
79710;SDS011;69465;51.630;6.570;2023-04-25T05:46:29;11.37;;;5.40;;
79710;SDS011;69465;51.630;6.570;2023-04-25T05:48:56;12.07;;;5.40;;
79710;SDS011;69465;51.630;6.570;2023-04-25T05:51:23;10.20;;;5.57;;
79710;SDS011;69465;51.630;6.570;2023-04-25T05:53:50;12.57;;;5.10;;
79710;SDS011;69465;51.630;6.570;2023-04-25T05:56:17;16.40;;;5.23;;
79710;SDS011;69465;51.630;6.570;2023-04-25T05:58:43;17.63;;;5.90;;
79710;SDS011;69465;51.630;6.570;2023-04-25T06:01:10;15.80;;;6.00;;
79710;SDS011;69465;51.630;6.570;2023-04-25T06:03:38;15.00;;;5.70;;
79710;SDS011;69465;51.630;6.570;2023-04-25T06:06:05;15.23;;;5.63;;
79710;SDS011;69465;51.630;6.570;2023-04-25T06:08:32;14.20;;;6.20;;
79710;SDS011;69465;51.630;6.570;2023-04-25T06:10:59;17.47;;;6.03;;
79710;SDS011;69465;51.630;6.570;2023-04-25T06:13:25;18.30;;;7.27;;
79710;SDS011;69465;51.630;6.570;2023-04-25T06:15:52;17.70;;;7.13;;
79710;SDS011;69465;51.630;6.570;2023-04-25T06:18:18;16.80;;;6.00;;
79710;SDS011;69465;51.630;6.570;2023-04-25T06:20:45;13.33;;;5.87;;
79710;SDS011;69465;51.630;6.570;2023-04-25T06:23:12;10.90;;;5.63;;
79710;SDS011;69465;51.630;6.570;2023-04-25T06:25:39;16.27;;;6.17;;
79710;SDS011;69465;51.630;6.570;2023-04-25T06:28:05;14.30;;;5.87;;
79710;SDS011;69465;51.630;6.570;2023-04-25T06:30:32;14.33;;;6.03;;
79710;SDS011;69465;51.630;6.570;2023-04-25T06:32:59;15.77;;;6.23;;
79710;SDS011;69465;51.630;6.570;2023-04-25T06:35:25;14.37;;;5.10;;
79710;SDS011;69465;51.630;6.570;2023-04-25T06:37:52;11.30;;;4.70;;
79710;SDS011;69465;51.630;6.570;2023-04-25T06:40:18;11.47;;;4.50;;
79710;SDS011;69465;51.630;6.570;2023-04-25T06:42:45;15.17;;;4.70;;
79710;SDS011;69465;51.630;6.570;2023-04-25T06:45:12;9.93;;;4.57;;
79710;SDS011;69465;51.630;6.570;2023-04-25T06:47:39;10.63;;;4.50;;
79710;SDS011;69465;51.630;6.570;2023-04-25T06:50:05;13.90;;;5.10;;
79710;SDS011;69465;51.630;6.570;2023-04-25T06:52:32;14.53;;;5.13;;
79710;SDS011;69465;51.630;6.570;2023-04-25T06:54:59;12.83;;;5.10;;
79710;SDS011;69465;51.630;6.570;2023-04-25T06:57:26;13.97;;;5.33;;
79710;SDS011;69465;51.630;6.570;2023-04-25T06:59:52;11.43;;;4.93;;
79710;SDS011;69465;51.630;6.570;2023-04-25T07:02:19;9.53;;;4.90;;
79710;SDS011;69465;51.630;6.570;2023-04-25T07:04:45;12.70;;;5.57;;
79710;SDS011;69465;51.630;6.570;2023-04-25T07:07:12;10.70;;;4.77;;
79710;SDS011;69465;51.630;6.570;2023-04-25T07:09:39;11.87;;;4.33;;
79710;SDS011;69465;51.630;6.570;2023-04-25T07:12:06;11.10;;;5.03;;
79710;SDS011;69465;51.630;6.570;2023-04-25T07:14:32;11.47;;;6.17;;
79710;SDS011;69465;51.630;6.570;2023-04-25T07:16:59;8.67;;;3.87;;
79710;SDS011;69465;51.630;6.570;2023-04-25T07:19:26;9.27;;;3.80;;
79710;SDS011;69465;51.630;6.570;2023-04-25T07:21:52;6.47;;;3.60;;
79710;SDS011;69465;51.630;6.570;2023-04-25T07:24:19;11.23;;;3.50;;
79710;SDS011;69465;51.630;6.570;2023-04-25T07:26:46;11.53;;;4.23;;
79710;SDS011;69465;51.630;6.570;2023-04-25T07:29:12;10.40;;;3.90;;
79710;SDS011;69465;51.630;6.570;2023-04-25T07:31:39;6.97;;;2.90;;
79710;SDS011;69465;51.630;6.570;2023-04-25T07:34:06;6.73;;;2.80;;
79710;SDS011;69465;51.630;6.570;2023-04-25T07:36:32;7.00;;;3.10;;
79710;SDS011;69465;51.630;6.570;2023-04-25T07:38:59;11.07;;;2.73;;
79710;SDS011;69465;51.630;6.570;2023-04-25T07:41:25;8.03;;;3.33;;
79710;SDS011;69465;51.630;6.570;2023-04-25T07:43:52;6.73;;;2.70;;
79710;SDS011;69465;51.630;6.570;2023-04-25T07:46:19;4.23;;;2.70;;
79710;SDS011;69465;51.630;6.570;2023-04-25T07:48:45;8.80;;;3.30;;
79710;SDS011;69465;51.630;6.570;2023-04-25T07:51:12;12.93;;;3.00;;
79710;SDS011;69465;51.630;6.570;2023-04-25T07:53:38;7.17;;;2.70;;
79710;SDS011;69465;51.630;6.570;2023-04-25T07:56:05;8.87;;;2.67;;
79710;SDS011;69465;51.630;6.570;2023-04-25T07:58:32;8.53;;;2.60;;
79710;SDS011;69465;51.630;6.570;2023-04-25T08:00:59;4.20;;;2.80;;
79710;SDS011;69465;51.630;6.570;2023-04-25T08:03:25;5.27;;;2.30;;
79710;SDS011;69465;51.630;6.570;2023-04-25T08:05:53;8.03;;;3.17;;
79710;SDS011;69465;51.630;6.570;2023-04-25T08:08:19;9.60;;;2.93;;
79710;SDS011;69465;51.630;6.570;2023-04-25T08:10:46;3.70;;;2.50;;
79710;SDS011;69465;51.630;6.570;2023-04-25T08:13:13;8.07;;;2.57;;
79710;SDS011;69465;51.630;6.570;2023-04-25T08:15:40;6.13;;;2.90;;
79710;SDS011;69465;51.630;6.570;2023-04-25T08:18:07;9.37;;;2.90;;
79710;SDS011;69465;51.630;6.570;2023-04-25T08:20:34;4.27;;;2.27;;
79710;SDS011;69465;51.630;6.570;2023-04-25T08:23:00;7.50;;;2.60;;
79710;SDS011;69465;51.630;6.570;2023-04-25T08:25:27;7.30;;;2.30;;
79710;SDS011;69465;51.630;6.570;2023-04-25T08:27:53;6.30;;;2.87;;
79710;SDS011;69465;51.630;6.570;2023-04-25T08:30:20;8.93;;;2.87;;
79710;SDS011;69465;51.630;6.570;2023-04-25T08:32:47;6.53;;;2.57;;
79710;SDS011;69465;51.630;6.570;2023-04-25T08:35:14;8.57;;;2.17;;
79710;SDS011;69465;51.630;6.570;2023-04-25T08:37:41;8.67;;;2.60;;
79710;SDS011;69465;51.630;6.570;2023-04-25T08:40:08;7.70;;;2.47;;
79710;SDS011;69465;51.630;6.570;2023-04-25T08:42:40;8.80;;;2.90;;
79710;SDS011;69465;51.630;6.570;2023-04-25T08:45:08;7.50;;;2.60;;
79710;SDS011;69465;51.630;6.570;2023-04-25T08:47:36;5.70;;;2.10;;
79710;SDS011;69465;51.630;6.570;2023-04-25T08:50:04;6.23;;;2.30;;
79710;SDS011;69465;51.630;6.570;2023-04-25T08:52:39;8.27;;;2.27;;
79710;SDS011;69465;51.630;6.570;2023-04-25T08:55:11;6.37;;;2.20;;
79710;SDS011;69465;51.630;6.570;2023-04-25T08:57:42;4.40;;;1.67;;
79710;SDS011;69465;51.630;6.570;2023-04-25T09:00:09;7.93;;;2.10;;
79710;SDS011;69465;51.630;6.570;2023-04-25T09:02:37;8.67;;;2.50;;
79710;SDS011;69465;51.630;6.570;2023-04-25T09:05:06;7.87;;;1.90;;
79710;SDS011;69465;51.630;6.570;2023-04-25T09:07:33;6.50;;;2.33;;
79710;SDS011;69465;51.630;6.570;2023-04-25T09:09:59;4.87;;;1.90;;
79710;SDS011;69465;51.630;6.570;2023-04-25T09:12:26;6.03;;;2.00;;
79710;SDS011;69465;51.630;6.570;2023-04-25T09:15:05;4.30;;;2.10;;
79710;SDS011;69465;51.630;6.570;2023-04-25T09:17:33;6.20;;;1.93;;
79710;SDS011;69465;51.630;6.570;2023-04-25T09:20:07;3.67;;;1.50;;
79710;SDS011;69465;51.630;6.570;2023-04-25T09:22:36;8.13;;;2.00;;
79710;SDS011;69465;51.630;6.570;2023-04-25T09:25:12;5.93;;;3.03;;
79710;SDS011;69465;51.630;6.570;2023-04-25T09:27:49;7.17;;;1.70;;
79710;SDS011;69465;51.630;6.570;2023-04-25T09:30:17;5.53;;;2.33;;
79710;SDS011;69465;51.630;6.570;2023-04-25T09:32:43;6.10;;;1.83;;
79710;SDS011;69465;51.630;6.570;2023-04-25T09:35:10;5.97;;;1.60;;
79710;SDS011;69465;51.630;6.570;2023-04-25T09:37:48;5.40;;;2.23;;
79710;SDS011;69465;51.630;6.570;2023-04-25T09:40:16;5.47;;;1.90;;
79710;SDS011;69465;51.630;6.570;2023-04-25T09:42:44;5.20;;;1.70;;
79710;SDS011;69465;51.630;6.570;2023-04-25T09:45:12;7.27;;;2.20;;
79710;SDS011;69465;51.630;6.570;2023-04-25T09:47:39;6.20;;;2.07;;
79710;SDS011;69465;51.630;6.570;2023-04-25T09:50:13;5.70;;;2.03;;
79710;SDS011;69465;51.630;6.570;2023-04-25T09:52:41;5.40;;;1.93;;
79710;SDS011;69465;51.630;6.570;2023-04-25T09:55:07;6.33;;;2.40;;
79710;SDS011;69465;51.630;6.570;2023-04-25T09:57:34;5.10;;;2.37;;
79710;SDS011;69465;51.630;6.570;2023-04-25T10:00:02;6.80;;;2.43;;
79710;SDS011;69465;51.630;6.570;2023-04-25T10:02:28;5.13;;;1.40;;
79710;SDS011;69465;51.630;6.570;2023-04-25T10:04:55;3.20;;;1.80;;
79710;SDS011;69465;51.630;6.570;2023-04-25T10:07:23;5.00;;;1.60;;
79710;SDS011;69465;51.630;6.570;2023-04-25T10:09:54;3.43;;;2.00;;
79710;SDS011;69465;51.630;6.570;2023-04-25T10:12:25;5.83;;;1.80;;
79710;SDS011;69465;51.630;6.570;2023-04-25T10:14:52;4.87;;;1.50;;
79710;SDS011;69465;51.630;6.570;2023-04-25T10:17:20;4.27;;;2.70;;
79710;SDS011;69465;51.630;6.570;2023-04-25T10:19:47;4.47;;;1.40;;
79710;SDS011;69465;51.630;6.570;2023-04-25T10:22:17;4.40;;;1.57;;
79710;SDS011;69465;51.630;6.570;2023-04-25T10:24:49;7.50;;;1.90;;
79710;SDS011;69465;51.630;6.570;2023-04-25T10:27:17;4.60;;;1.87;;
79710;SDS011;69465;51.630;6.570;2023-04-25T10:29:43;5.13;;;1.87;;
79710;SDS011;69465;51.630;6.570;2023-04-25T10:32:10;5.23;;;1.50;;
79710;SDS011;69465;51.630;6.570;2023-04-25T10:34:38;3.93;;;1.47;;
79710;SDS011;69465;51.630;6.570;2023-04-25T10:37:08;4.17;;;1.90;;
79710;SDS011;69465;51.630;6.570;2023-04-25T10:39:35;7.80;;;2.37;;
79710;SDS011;69465;51.630;6.570;2023-04-25T10:42:05;4.97;;;1.70;;
79710;SDS011;69465;51.630;6.570;2023-04-25T10:44:32;4.53;;;1.60;;
79710;SDS011;69465;51.630;6.570;2023-04-25T10:46:59;4.73;;;1.63;;
79710;SDS011;69465;51.630;6.570;2023-04-25T10:57:50;5.97;;;1.63;;
79710;SDS011;69465;51.630;6.570;2023-04-25T11:00:19;6.97;;;1.73;;
79710;SDS011;69465;51.630;6.570;2023-04-25T11:05:20;4.30;;;1.80;;
79710;SDS011;69465;51.630;6.570;2023-04-25T11:10:32;5.40;;;2.20;;
79710;SDS011;69465;51.630;6.570;2023-04-25T11:12:59;6.20;;;2.07;;
79710;SDS011;69465;51.630;6.570;2023-04-25T11:15:27;5.67;;;2.20;;
79710;SDS011;69465;51.630;6.570;2023-04-25T11:17:54;4.53;;;2.07;;
79710;SDS011;69465;51.630;6.570;2023-04-25T11:20:21;3.60;;;1.47;;
79710;SDS011;69465;51.630;6.570;2023-04-25T11:22:48;4.73;;;1.53;;
79710;SDS011;69465;51.630;6.570;2023-04-25T11:25:17;7.03;;;1.90;;
79710;SDS011;69465;51.630;6.570;2023-04-25T11:27:51;2.93;;;1.57;;
79710;SDS011;69465;51.630;6.570;2023-04-25T11:30:19;2.97;;;1.40;;
79710;SDS011;69465;51.630;6.570;2023-04-25T11:32:47;3.00;;;1.50;;
79710;SDS011;69465;51.630;6.570;2023-04-25T11:35:13;3.37;;;1.47;;
79710;SDS011;69465;51.630;6.570;2023-04-25T11:37:40;4.10;;;1.83;;
79710;SDS011;69465;51.630;6.570;2023-04-25T11:40:09;4.00;;;1.60;;
79710;SDS011;69465;51.630;6.570;2023-04-25T11:42:44;5.40;;;1.80;;
79710;SDS011;69465;51.630;6.570;2023-04-25T11:45:12;4.50;;;1.73;;
79710;SDS011;69465;51.630;6.570;2023-04-25T11:47:40;4.20;;;1.43;;
79710;SDS011;69465;51.630;6.570;2023-04-25T11:50:07;3.47;;;1.67;;
79710;SDS011;69465;51.630;6.570;2023-04-25T11:52:42;4.93;;;1.73;;
79710;SDS011;69465;51.630;6.570;2023-04-25T11:55:13;6.53;;;2.33;;
79710;SDS011;69465;51.630;6.570;2023-04-25T11:57:41;5.67;;;1.47;;
79710;SDS011;69465;51.630;6.570;2023-04-25T12:00:10;4.13;;;1.60;;
79710;SDS011;69465;51.630;6.570;2023-04-25T12:02:40;4.47;;;1.47;;
79710;SDS011;69465;51.630;6.570;2023-04-25T12:05:12;5.00;;;2.17;;
79710;SDS011;69465;51.630;6.570;2023-04-25T12:07:56;5.23;;;1.90;;
79710;SDS011;69465;51.630;6.570;2023-04-25T12:10:24;3.40;;;1.70;;
79710;SDS011;69465;51.630;6.570;2023-04-25T12:12:51;5.13;;;1.93;;
79710;SDS011;69465;51.630;6.570;2023-04-25T12:15:22;5.83;;;1.57;;
79710;SDS011;69465;51.630;6.570;2023-04-25T12:17:51;3.57;;;1.80;;
79710;SDS011;69465;51.630;6.570;2023-04-25T12:20:20;6.50;;;2.03;;
79710;SDS011;69465;51.630;6.570;2023-04-25T12:22:50;3.90;;;1.67;;
79710;SDS011;69465;51.630;6.570;2023-04-25T12:25:37;3.90;;;1.73;;
79710;SDS011;69465;51.630;6.570;2023-04-25T12:28:14;5.87;;;2.07;;
79710;SDS011;69465;51.630;6.570;2023-04-25T12:33:33;5.57;;;2.10;;
79710;SDS011;69465;51.630;6.570;2023-04-25T12:36:04;5.77;;;2.13;;
79710;SDS011;69465;51.630;6.570;2023-04-25T12:38:35;5.10;;;1.73;;
79710;SDS011;69465;51.630;6.570;2023-04-25T12:41:03;7.40;;;3.00;;
79710;SDS011;69465;51.630;6.570;2023-04-25T12:43:30;7.73;;;2.67;;
79710;SDS011;69465;51.630;6.570;2023-04-25T12:45:57;3.73;;;1.80;;
79710;SDS011;69465;51.630;6.570;2023-04-25T12:48:23;4.70;;;2.37;;
79710;SDS011;69465;51.630;6.570;2023-04-25T12:50:51;4.67;;;1.97;;
79710;SDS011;69465;51.630;6.570;2023-04-25T12:53:21;3.53;;;1.53;;
79710;SDS011;69465;51.630;6.570;2023-04-25T12:55:49;4.60;;;1.60;;
79710;SDS011;69465;51.630;6.570;2023-04-25T12:58:16;3.97;;;1.50;;
79710;SDS011;69465;51.630;6.570;2023-04-25T13:00:44;2.63;;;1.40;;
79710;SDS011;69465;51.630;6.570;2023-04-25T13:03:12;5.03;;;1.40;;
79710;SDS011;69465;51.630;6.570;2023-04-25T13:05:39;5.03;;;1.60;;
79710;SDS011;69465;51.630;6.570;2023-04-25T13:08:06;4.07;;;1.70;;
79710;SDS011;69465;51.630;6.570;2023-04-25T13:10:33;3.60;;;1.57;;
79710;SDS011;69465;51.630;6.570;2023-04-25T13:12:59;4.23;;;1.90;;
79710;SDS011;69465;51.630;6.570;2023-04-25T13:15:26;5.40;;;2.10;;
79710;SDS011;69465;51.630;6.570;2023-04-25T13:17:53;4.63;;;1.73;;
79710;SDS011;69465;51.630;6.570;2023-04-25T13:20:19;3.53;;;1.50;;
79710;SDS011;69465;51.630;6.570;2023-04-25T13:22:46;4.00;;;1.57;;
79710;SDS011;69465;51.630;6.570;2023-04-25T13:25:13;5.80;;;1.80;;
79710;SDS011;69465;51.630;6.570;2023-04-25T13:27:40;4.10;;;1.50;;
79710;SDS011;69465;51.630;6.570;2023-04-25T13:30:06;3.03;;;1.27;;
79710;SDS011;69465;51.630;6.570;2023-04-25T13:32:34;6.20;;;1.70;;
79710;SDS011;69465;51.630;6.570;2023-04-25T13:35:02;3.13;;;1.30;;
79710;SDS011;69465;51.630;6.570;2023-04-25T13:37:34;3.80;;;1.40;;
79710;SDS011;69465;51.630;6.570;2023-04-25T13:40:02;2.80;;;1.50;;
79710;SDS011;69465;51.630;6.570;2023-04-25T13:42:31;3.50;;;1.70;;
79710;SDS011;69465;51.630;6.570;2023-04-25T13:44:58;5.13;;;1.70;;
79710;SDS011;69465;51.630;6.570;2023-04-25T13:47:25;4.03;;;1.17;;
79710;SDS011;69465;51.630;6.570;2023-04-25T13:49:52;5.00;;;1.93;;
79710;SDS011;69465;51.630;6.570;2023-04-25T13:52:19;3.97;;;2.00;;
79710;SDS011;69465;51.630;6.570;2023-04-25T13:54:46;4.53;;;1.77;;
79710;SDS011;69465;51.630;6.570;2023-04-25T13:57:12;5.80;;;1.83;;
79710;SDS011;69465;51.630;6.570;2023-04-25T13:59:39;5.00;;;1.80;;
79710;SDS011;69465;51.630;6.570;2023-04-25T14:02:06;5.37;;;1.93;;
79710;SDS011;69465;51.630;6.570;2023-04-25T14:04:33;3.67;;;1.70;;
79710;SDS011;69465;51.630;6.570;2023-04-25T14:06:59;4.73;;;1.80;;
79710;SDS011;69465;51.630;6.570;2023-04-25T14:09:26;7.67;;;2.10;;
79710;SDS011;69465;51.630;6.570;2023-04-25T14:11:53;4.63;;;1.53;;
79710;SDS011;69465;51.630;6.570;2023-04-25T14:14:20;3.97;;;2.03;;
79710;SDS011;69465;51.630;6.570;2023-04-25T14:16:48;5.57;;;2.00;;
79710;SDS011;69465;51.630;6.570;2023-04-25T14:19:15;8.00;;;1.67;;
79710;SDS011;69465;51.630;6.570;2023-04-25T14:21:42;5.20;;;1.73;;
79710;SDS011;69465;51.630;6.570;2023-04-25T14:24:09;4.07;;;1.70;;
79710;SDS011;69465;51.630;6.570;2023-04-25T14:26:36;4.67;;;1.90;;
79710;SDS011;69465;51.630;6.570;2023-04-25T14:29:04;7.03;;;1.93;;
79710;SDS011;69465;51.630;6.570;2023-04-25T14:31:31;3.57;;;1.80;;
79710;SDS011;69465;51.630;6.570;2023-04-25T14:33:58;5.40;;;1.73;;
79710;SDS011;69465;51.630;6.570;2023-04-25T14:36:25;2.77;;;1.67;;
79710;SDS011;69465;51.630;6.570;2023-04-25T14:38:53;5.30;;;1.63;;
79710;SDS011;69465;51.630;6.570;2023-04-25T14:41:20;2.73;;;1.43;;
79710;SDS011;69465;51.630;6.570;2023-04-25T14:43:47;4.43;;;1.60;;
79710;SDS011;69465;51.630;6.570;2023-04-25T14:46:14;6.00;;;1.60;;
79710;SDS011;69465;51.630;6.570;2023-04-25T14:48:41;4.23;;;1.60;;
79710;SDS011;69465;51.630;6.570;2023-04-25T14:51:08;6.53;;;1.53;;
79710;SDS011;69465;51.630;6.570;2023-04-25T14:53:35;3.87;;;1.50;;
79710;SDS011;69465;51.630;6.570;2023-04-25T14:56:02;3.30;;;1.83;;
79710;SDS011;69465;51.630;6.570;2023-04-25T14:58:29;3.37;;;1.90;;
79710;SDS011;69465;51.630;6.570;2023-04-25T15:00:57;3.87;;;1.63;;
79710;SDS011;69465;51.630;6.570;2023-04-25T15:03:24;4.50;;;1.60;;
79710;SDS011;69465;51.630;6.570;2023-04-25T15:05:51;2.40;;;1.50;;
79710;SDS011;69465;51.630;6.570;2023-04-25T15:08:21;5.97;;;1.50;;
79710;SDS011;69465;51.630;6.570;2023-04-25T15:10:48;3.57;;;1.70;;
79710;SDS011;69465;51.630;6.570;2023-04-25T15:13:15;5.63;;;1.77;;
79710;SDS011;69465;51.630;6.570;2023-04-25T15:15:43;3.50;;;1.13;;
79710;SDS011;69465;51.630;6.570;2023-04-25T15:18:10;3.00;;;1.10;;
79710;SDS011;69465;51.630;6.570;2023-04-25T15:20:37;1.97;;;1.10;;
79710;SDS011;69465;51.630;6.570;2023-04-25T15:23:03;5.07;;;1.70;;
79710;SDS011;69465;51.630;6.570;2023-04-25T15:25:30;6.07;;;1.60;;
79710;SDS011;69465;51.630;6.570;2023-04-25T15:27:56;3.07;;;1.50;;
79710;SDS011;69465;51.630;6.570;2023-04-25T15:30:23;3.77;;;1.50;;
79710;SDS011;69465;51.630;6.570;2023-04-25T15:32:50;3.40;;;1.30;;
79710;SDS011;69465;51.630;6.570;2023-04-25T15:35:16;2.67;;;1.23;;
79710;SDS011;69465;51.630;6.570;2023-04-25T15:37:43;4.47;;;1.80;;
79710;SDS011;69465;51.630;6.570;2023-04-25T15:40:10;6.30;;;1.73;;
79710;SDS011;69465;51.630;6.570;2023-04-25T15:42:39;4.23;;;1.67;;
79710;SDS011;69465;51.630;6.570;2023-04-25T15:45:08;6.70;;;2.13;;
79710;SDS011;69465;51.630;6.570;2023-04-25T15:47:37;4.10;;;2.07;;
79710;SDS011;69465;51.630;6.570;2023-04-25T15:50:04;4.07;;;1.90;;
79710;SDS011;69465;51.630;6.570;2023-04-25T15:52:32;3.43;;;1.80;;
79710;SDS011;69465;51.630;6.570;2023-04-25T15:55:00;6.33;;;2.37;;
79710;SDS011;69465;51.630;6.570;2023-04-25T15:57:26;3.37;;;1.77;;
79710;SDS011;69465;51.630;6.570;2023-04-25T15:59:53;4.97;;;1.80;;
79710;SDS011;69465;51.630;6.570;2023-04-25T16:02:19;3.63;;;1.60;;
79710;SDS011;69465;51.630;6.570;2023-04-25T16:04:46;4.33;;;1.50;;
79710;SDS011;69465;51.630;6.570;2023-04-25T16:07:13;5.80;;;1.70;;
79710;SDS011;69465;51.630;6.570;2023-04-25T16:09:40;4.07;;;1.60;;
79710;SDS011;69465;51.630;6.570;2023-04-25T16:12:08;5.40;;;1.90;;
79710;SDS011;69465;51.630;6.570;2023-04-25T16:14:36;4.07;;;2.03;;
79710;SDS011;69465;51.630;6.570;2023-04-25T16:17:02;4.67;;;1.57;;
79710;SDS011;69465;51.630;6.570;2023-04-25T16:19:29;3.27;;;1.60;;
79710;SDS011;69465;51.630;6.570;2023-04-25T16:21:56;3.90;;;1.93;;
79710;SDS011;69465;51.630;6.570;2023-04-25T16:24:22;2.93;;;1.50;;
79710;SDS011;69465;51.630;6.570;2023-04-25T16:26:49;6.20;;;1.80;;
79710;SDS011;69465;51.630;6.570;2023-04-25T16:29:15;4.07;;;2.00;;
79710;SDS011;69465;51.630;6.570;2023-04-25T16:31:42;4.70;;;1.83;;
79710;SDS011;69465;51.630;6.570;2023-04-25T16:34:09;5.40;;;2.00;;
79710;SDS011;69465;51.630;6.570;2023-04-25T16:36:35;3.97;;;1.60;;
79710;SDS011;69465;51.630;6.570;2023-04-25T16:39:02;3.90;;;1.37;;
79710;SDS011;69465;51.630;6.570;2023-04-25T16:41:28;2.63;;;1.90;;
79710;SDS011;69465;51.630;6.570;2023-04-25T16:43:55;4.80;;;1.53;;
79710;SDS011;69465;51.630;6.570;2023-04-25T16:46:22;6.60;;;2.00;;
79710;SDS011;69465;51.630;6.570;2023-04-25T16:48:49;5.73;;;1.90;;
79710;SDS011;69465;51.630;6.570;2023-04-25T16:51:16;4.97;;;1.87;;
79710;SDS011;69465;51.630;6.570;2023-04-25T16:53:43;3.60;;;1.70;;
79710;SDS011;69465;51.630;6.570;2023-04-25T16:56:09;4.77;;;1.87;;